PWSweather.com
Personal Weather Stations
Station Observations
CARNOUSTIE
Pambride, CarnoustieGB DD7 6DY

PambrideCarnoustieGB DD7 6DY

Lat: 56.50889, Lon: -2.7051

Elevation: 105

Station Type: Oregon Scientific WMR200

Latest ConditionsUpdated 8:50:00 PM GMT Wednesday, Apr 24, 2019
Currently Today's Max Today's Min Today's Average
Temperature 47.7°F8.7°C 55.2°F12.9°C 44.2°F6.8°C 49.4°F9.7°C
Dew Point 36.5°F2.5°C 39.5°F4.2°C 32.4°F0.2°C 36.1°F2.3°C
Winds 9.2 mph NE14.8 kmh NE 16.1 mph -25.9 kmh - - 10.4 mph 16.7 kmh
Wind Gusts 12.7 mph20.4 kmh 19.6 mph31.5 kmh - -
Humidity 65% 65% 53% 60%
Pressure 29.32 in992.9 mb 29.50 in999.0 mb 29.32 in992.9 mb -
Hour Temp Dew Point Humidity Winds Wind Gusts Pressure Precip Precip Rate Daily Precip Total
08:50 PM 47.7°F8.7°C 36.5°F2.5°C 65% 9.2 mph NE14.8 kmh NE 12.7 mph20.4 kmh 29.32 in992.9 mb - 0.00 in0.0 mm 0.00 in0.0 mm
08:45 PM 47.7°F8.7°C 36.5°F2.5°C 65% 9.2 mph NE14.8 kmh NE 11.5 mph18.5 kmh 29.32 in992.9 mb - 0.00 in0.0 mm 0.00 in0.0 mm
08:40 PM 47.7°F8.7°C 36.5°F2.5°C 65% 10.4 mph NE16.7 kmh NE 13.8 mph22.2 kmh 29.32 in992.9 mb - 0.00 in0.0 mm 0.00 in0.0 mm
08:35 PM 47.7°F8.7°C 36.5°F2.5°C 65% 11.5 mph NE18.5 kmh NE 13.8 mph22.2 kmh 29.32 in992.9 mb - 0.00 in0.0 mm 0.00 in0.0 mm
08:30 PM 47.7°F8.7°C 36.5°F2.5°C 65% 11.5 mph NE18.5 kmh NE 15.0 mph24.1 kmh 29.32 in992.9 mb - 0.00 in0.0 mm 0.00 in0.0 mm
08:25 PM 47.7°F8.7°C 36.5°F2.5°C 65% 11.5 mph NE18.5 kmh NE 11.5 mph18.5 kmh 29.32 in992.9 mb - 0.00 in0.0 mm 0.00 in0.0 mm
08:20 PM 47.8°F8.8°C 36.6°F2.6°C 65% 11.5 mph NE18.5 kmh NE 13.8 mph22.2 kmh 29.32 in992.9 mb - 0.00 in0.0 mm 0.00 in0.0 mm
08:15 PM 47.8°F8.8°C 36.6°F2.6°C 65% 10.4 mph ENE16.7 kmh ENE 11.5 mph18.5 kmh 29.32 in992.9 mb - 0.00 in0.0 mm 0.00 in0.0 mm
08:10 PM 47.8°F8.8°C 36.6°F2.6°C 65% 10.4 mph NE16.7 kmh NE 12.7 mph20.4 kmh 29.32 in992.9 mb - 0.00 in0.0 mm 0.00 in0.0 mm
08:00 PM 48.0°F8.9°C 36.4°F2.4°C 64% 10.4 mph NE16.7 kmh NE 12.7 mph20.4 kmh 29.32 in992.9 mb - 0.00 in0.0 mm 0.00 in0.0 mm
07:55 PM 48.0°F8.9°C 36.4°F2.4°C 64% 9.2 mph NE14.8 kmh NE 12.7 mph20.4 kmh 29.32 in992.9 mb - 0.00 in0.0 mm 0.00 in0.0 mm
07:50 PM 48.0°F8.9°C 36.4°F2.4°C 64% 10.4 mph NE16.7 kmh NE 12.7 mph20.4 kmh 29.32 in992.9 mb - 0.00 in0.0 mm 0.00 in0.0 mm
07:45 PM 48.2°F9.0°C 36.6°F2.6°C 64% 8.1 mph NE13.0 kmh NE 11.5 mph18.5 kmh 29.32 in992.9 mb - 0.00 in0.0 mm 0.00 in0.0 mm
07:40 PM 48.2°F9.0°C 36.6°F2.6°C 64% 8.1 mph NE13.0 kmh NE 9.2 mph14.8 kmh 29.32 in992.9 mb - 0.00 in0.0 mm 0.00 in0.0 mm
07:35 PM 48.2°F9.0°C 36.2°F2.3°C 63% 9.2 mph NE14.8 kmh NE 12.7 mph20.4 kmh 29.32 in992.9 mb - 0.00 in0.0 mm 0.00 in0.0 mm
07:30 PM 48.2°F9.0°C 36.2°F2.3°C 63% 10.4 mph NE16.7 kmh NE 11.5 mph18.5 kmh 29.32 in992.9 mb - 0.00 in0.0 mm 0.00 in0.0 mm
07:25 PM 48.4°F9.1°C 36.4°F2.4°C 63% 10.4 mph NE16.7 kmh NE 13.8 mph22.2 kmh 29.32 in992.9 mb - 0.00 in0.0 mm 0.00 in0.0 mm
07:20 PM 48.4°F9.1°C 36.4°F2.4°C 63% 11.5 mph NE18.5 kmh NE 13.8 mph22.2 kmh 29.32 in992.9 mb - 0.00 in0.0 mm 0.00 in0.0 mm
07:15 PM 48.4°F9.1°C 36.4°F2.4°C 63% 11.5 mph NE18.5 kmh NE 12.7 mph20.4 kmh 29.32 in992.9 mb - 0.00 in0.0 mm 0.00 in0.0 mm
07:10 PM 48.4°F9.1°C 36.4°F2.4°C 63% 12.7 mph NE20.4 kmh NE 13.8 mph22.2 kmh 29.32 in992.9 mb - 0.00 in0.0 mm 0.00 in0.0 mm
07:00 PM 48.6°F9.2°C 36.5°F2.5°C 63% 12.7 mph NE20.4 kmh NE 15.0 mph24.1 kmh 29.32 in992.9 mb - 0.00 in0.0 mm 0.00 in0.0 mm
06:55 PM 48.6°F9.2°C 36.5°F2.5°C 63% 11.5 mph NE18.5 kmh NE 13.8 mph22.2 kmh 29.32 in992.9 mb - 0.00 in0.0 mm 0.00 in0.0 mm
06:50 PM 48.7°F9.3°C 36.7°F2.6°C 63% 11.5 mph ENE18.5 kmh ENE 13.8 mph22.2 kmh 29.32 in992.9 mb - 0.00 in0.0 mm 0.00 in0.0 mm
06:45 PM 48.7°F9.3°C 36.3°F2.4°C 62% 11.5 mph NE18.5 kmh NE 13.8 mph22.2 kmh 29.32 in992.9 mb - 0.00 in0.0 mm 0.00 in0.0 mm
06:40 PM 48.7°F9.3°C 36.3°F2.4°C 62% 10.4 mph NE16.7 kmh NE 11.5 mph18.5 kmh 29.32 in992.9 mb - 0.00 in0.0 mm 0.00 in0.0 mm
06:35 PM 48.7°F9.3°C 36.3°F2.4°C 62% 9.2 mph NE14.8 kmh NE 11.5 mph18.5 kmh 29.32 in992.9 mb - 0.00 in0.0 mm 0.00 in0.0 mm
06:30 PM 48.7°F9.3°C 36.3°F2.4°C 62% 10.4 mph NE16.7 kmh NE 12.7 mph20.4 kmh 29.32 in992.9 mb - 0.00 in0.0 mm 0.00 in0.0 mm
06:25 PM 48.8°F9.3°C 36.3°F2.4°C 62% 10.4 mph NE16.7 kmh NE 11.5 mph18.5 kmh 29.32 in992.9 mb - 0.00 in0.0 mm 0.00 in0.0 mm
06:20 PM 48.9°F9.4°C 36.5°F2.5°C 62% 12.7 mph ENE20.4 kmh ENE 12.7 mph20.4 kmh 29.32 in992.9 mb - 0.00 in0.0 mm 0.00 in0.0 mm
06:15 PM 48.9°F9.4°C 36.5°F2.5°C 62% 10.4 mph NE16.7 kmh NE 13.8 mph22.2 kmh 29.32 in992.9 mb - 0.00 in0.0 mm 0.00 in0.0 mm
06:10 PM 48.9°F9.4°C 36.5°F2.5°C 62% 12.7 mph NE20.4 kmh NE 15.0 mph24.1 kmh 29.32 in992.9 mb - 0.00 in0.0 mm 0.00 in0.0 mm
06:00 PM 49.1°F9.5°C 36.6°F2.6°C 62% 11.5 mph NE18.5 kmh NE 15.0 mph24.1 kmh 29.32 in992.9 mb - 0.00 in0.0 mm 0.00 in0.0 mm
05:55 PM 49.1°F9.5°C 36.6°F2.6°C 62% 11.5 mph NE18.5 kmh NE 12.7 mph20.4 kmh 29.32 in992.9 mb - 0.00 in0.0 mm 0.00 in0.0 mm
05:50 PM 49.1°F9.5°C 36.6°F2.6°C 62% 12.7 mph NE20.4 kmh NE 13.8 mph22.2 kmh 29.32 in992.9 mb - 0.00 in0.0 mm 0.00 in0.0 mm
05:45 PM 49.3°F9.6°C 36.4°F2.4°C 61% 11.5 mph NE18.5 kmh NE 17.3 mph27.8 kmh 29.32 in992.9 mb - 0.00 in0.0 mm 0.00 in0.0 mm
05:40 PM 49.5°F9.7°C 36.6°F2.6°C 61% 11.5 mph NE18.5 kmh NE 17.3 mph27.8 kmh 29.32 in992.9 mb - 0.00 in0.0 mm 0.00 in0.0 mm
05:35 PM 49.5°F9.7°C 36.6°F2.6°C 61% 13.8 mph NE22.2 kmh NE 17.3 mph27.8 kmh 29.32 in992.9 mb - 0.00 in0.0 mm 0.00 in0.0 mm
05:30 PM 49.6°F9.8°C 36.7°F2.6°C 61% 11.5 mph NE18.5 kmh NE 16.1 mph25.9 kmh 29.32 in992.9 mb - 0.00 in0.0 mm 0.00 in0.0 mm
05:25 PM 49.6°F9.8°C 36.7°F2.6°C 61% 11.5 mph NE18.5 kmh NE 15.0 mph24.1 kmh 29.32 in992.9 mb - 0.00 in0.0 mm 0.00 in0.0 mm
05:20 PM 49.6°F9.8°C 36.7°F2.6°C 61% 12.7 mph NE20.4 kmh NE 16.1 mph25.9 kmh 29.32 in992.9 mb - 0.00 in0.0 mm 0.00 in0.0 mm
05:15 PM 49.8°F9.9°C 36.9°F2.7°C 61% 9.2 mph NE14.8 kmh NE 13.8 mph22.2 kmh 29.32 in992.9 mb - 0.00 in0.0 mm 0.00 in0.0 mm
05:10 PM 49.8°F9.9°C 36.9°F2.7°C 61% 10.4 mph NE16.7 kmh NE 12.7 mph20.4 kmh 29.35 in993.9 mb - 0.00 in0.0 mm 0.00 in0.0 mm
05:00 PM 49.9°F9.9°C 37.0°F2.8°C 61% 11.5 mph NE18.5 kmh NE 13.8 mph22.2 kmh 29.35 in993.9 mb - 0.00 in0.0 mm 0.00 in0.0 mm
04:55 PM 50.0°F10.0°C 36.7°F2.6°C 60% 11.5 mph NE18.5 kmh NE 15.0 mph24.1 kmh 29.32 in992.9 mb - 0.00 in0.0 mm 0.00 in0.0 mm
04:50 PM 50.0°F10.0°C 36.7°F2.6°C 60% 12.7 mph NE20.4 kmh NE 17.3 mph27.8 kmh 29.32 in992.9 mb - 0.00 in0.0 mm 0.00 in0.0 mm
04:45 PM 50.0°F10.0°C 36.7°F2.6°C 60% 12.7 mph ENE20.4 kmh ENE 13.8 mph22.2 kmh 29.32 in992.9 mb - 0.00 in0.0 mm 0.00 in0.0 mm
04:40 PM 50.0°F10.0°C 36.7°F2.6°C 60% 11.5 mph ENE18.5 kmh ENE 12.7 mph20.4 kmh 29.32 in992.9 mb - 0.00 in0.0 mm 0.00 in0.0 mm
04:35 PM 50.0°F10.0°C 36.7°F2.6°C 60% 12.7 mph NE20.4 kmh NE 13.8 mph22.2 kmh 29.32 in992.9 mb - 0.00 in0.0 mm 0.00 in0.0 mm
04:30 PM 50.2°F10.1°C 36.8°F2.7°C 60% 11.5 mph NE18.5 kmh NE 16.1 mph25.9 kmh 29.32 in992.9 mb - 0.00 in0.0 mm 0.00 in0.0 mm
04:25 PM 50.2°F10.1°C 36.8°F2.7°C 60% 13.8 mph ENE22.2 kmh ENE 16.1 mph25.9 kmh 29.35 in993.9 mb - 0.00 in0.0 mm 0.00 in0.0 mm
04:20 PM 50.0°F10.0°C 36.3°F2.4°C 59% 10.4 mph ENE16.7 kmh ENE 12.7 mph20.4 kmh 29.35 in993.9 mb - 0.00 in0.0 mm 0.00 in0.0 mm
04:15 PM 50.2°F10.1°C 36.4°F2.4°C 59% 13.8 mph NE22.2 kmh NE 17.3 mph27.8 kmh 29.35 in993.9 mb - 0.00 in0.0 mm 0.00 in0.0 mm
04:10 PM 50.2°F10.1°C 36.4°F2.4°C 59% 10.4 mph ENE16.7 kmh ENE 13.8 mph22.2 kmh 29.35 in993.9 mb - 0.00 in0.0 mm 0.00 in0.0 mm
04:00 PM 50.6°F10.3°C 36.4°F2.4°C 58% 11.5 mph NE18.5 kmh NE 13.8 mph22.2 kmh 29.35 in993.9 mb - 0.00 in0.0 mm 0.00 in0.0 mm
03:55 PM 50.7°F10.4°C 36.5°F2.5°C 58% 9.2 mph NE14.8 kmh NE 11.5 mph18.5 kmh 29.38 in994.9 mb - 0.00 in0.0 mm 0.00 in0.0 mm
03:50 PM 50.7°F10.4°C 36.5°F2.5°C 58% 13.8 mph E22.2 kmh E 16.1 mph25.9 kmh 29.38 in994.9 mb - 0.00 in0.0 mm 0.00 in0.0 mm
03:45 PM 50.9°F10.5°C 36.6°F2.6°C 58% 10.4 mph NE16.7 kmh NE 11.5 mph18.5 kmh 29.38 in994.9 mb - 0.00 in0.0 mm 0.00 in0.0 mm
03:40 PM 51.3°F10.7°C 36.5°F2.5°C 57% 11.5 mph NE18.5 kmh NE 16.1 mph25.9 kmh 29.38 in994.9 mb - 0.00 in0.0 mm 0.00 in0.0 mm
03:35 PM 51.6°F10.9°C 36.8°F2.7°C 57% 11.5 mph NE18.5 kmh NE 15.0 mph24.1 kmh 29.38 in994.9 mb - 0.00 in0.0 mm 0.00 in0.0 mm
03:30 PM 51.6°F10.9°C 36.9°F2.7°C 57% 16.1 mph NE25.9 kmh NE 19.6 mph31.5 kmh 29.38 in994.9 mb - 0.00 in0.0 mm 0.00 in0.0 mm
03:25 PM 51.9°F11.1°C 36.7°F2.6°C 56% 16.1 mph NE25.9 kmh NE 18.4 mph29.6 kmh 29.38 in994.9 mb - 0.00 in0.0 mm 0.00 in0.0 mm
03:20 PM 52.2°F11.2°C 36.9°F2.7°C 56% 11.5 mph NE18.5 kmh NE 17.3 mph27.8 kmh 29.38 in994.9 mb - 0.00 in0.0 mm 0.00 in0.0 mm
03:15 PM 52.3°F11.3°C 37.1°F2.8°C 56% 13.8 mph NE22.2 kmh NE 18.4 mph29.6 kmh 29.38 in994.9 mb - 0.00 in0.0 mm 0.00 in0.0 mm
03:10 PM 52.4°F11.3°C 37.1°F2.8°C 56% 11.5 mph NE18.5 kmh NE 12.7 mph20.4 kmh 29.38 in994.9 mb - 0.00 in0.0 mm 0.00 in0.0 mm
03:00 PM 52.9°F11.6°C 37.1°F2.8°C 55% 12.7 mph ENE20.4 kmh ENE 17.3 mph27.8 kmh 29.38 in994.9 mb - 0.00 in0.0 mm 0.00 in0.0 mm
02:55 PM 53.1°F11.7°C 37.8°F3.2°C 56% 12.7 mph NE20.4 kmh NE 16.1 mph25.9 kmh 29.38 in994.9 mb - 0.00 in0.0 mm 0.00 in0.0 mm
02:50 PM 53.1°F11.7°C 37.8°F3.2°C 56% 13.8 mph NE22.2 kmh NE 13.8 mph22.2 kmh 29.38 in994.9 mb - 0.00 in0.0 mm 0.00 in0.0 mm
02:45 PM 53.0°F11.7°C 37.7°F3.2°C 56% 12.7 mph ENE20.4 kmh ENE 15.0 mph24.1 kmh 29.38 in994.9 mb - 0.00 in0.0 mm 0.00 in0.0 mm
02:40 PM 52.9°F11.6°C 37.1°F2.8°C 55% 12.7 mph E20.4 kmh E 17.3 mph27.8 kmh 29.38 in994.9 mb - 0.00 in0.0 mm 0.00 in0.0 mm
02:35 PM 53.1°F11.7°C 37.3°F2.9°C 55% 13.8 mph ENE22.2 kmh ENE 15.0 mph24.1 kmh 29.38 in994.9 mb - 0.00 in0.0 mm 0.00 in0.0 mm
02:30 PM 53.2°F11.8°C 37.5°F3.1°C 55% 11.5 mph ENE18.5 kmh ENE 13.8 mph22.2 kmh 29.38 in994.9 mb - 0.00 in0.0 mm 0.00 in0.0 mm
02:25 PM 53.4°F11.9°C 37.6°F3.1°C 55% 10.4 mph NE16.7 kmh NE 13.8 mph22.2 kmh 29.38 in994.9 mb - 0.00 in0.0 mm 0.00 in0.0 mm
02:20 PM 53.3°F11.8°C 37.6°F3.1°C 55% 12.7 mph ENE20.4 kmh ENE 15.0 mph24.1 kmh 29.38 in994.9 mb - 0.00 in0.0 mm 0.00 in0.0 mm
02:15 PM 53.4°F11.9°C 37.6°F3.1°C 55% 10.4 mph ENE16.7 kmh ENE 16.1 mph25.9 kmh 29.38 in994.9 mb - 0.00 in0.0 mm 0.00 in0.0 mm
02:10 PM 53.4°F11.9°C 37.6°F3.1°C 55% 12.7 mph ENE20.4 kmh ENE 15.0 mph24.1 kmh 29.38 in994.9 mb - 0.00 in0.0 mm 0.00 in0.0 mm
02:00 PM 53.8°F12.1°C 37.6°F3.1°C 54% 13.8 mph NE22.2 kmh NE 18.4 mph29.6 kmh 29.38 in994.9 mb - 0.00 in0.0 mm 0.00 in0.0 mm
01:55 PM 53.6°F12.0°C 37.4°F3.0°C 54% 10.4 mph NE16.7 kmh NE 11.5 mph18.5 kmh 29.38 in994.9 mb - 0.00 in0.0 mm 0.00 in0.0 mm
01:50 PM 53.5°F11.9°C 37.3°F2.9°C 54% 16.1 mph NE25.9 kmh NE 18.4 mph29.6 kmh 29.38 in994.9 mb - 0.00 in0.0 mm 0.00 in0.0 mm
01:45 PM 53.5°F11.9°C 37.3°F2.9°C 54% 11.5 mph NE18.5 kmh NE 13.8 mph22.2 kmh 29.38 in994.9 mb - 0.00 in0.0 mm 0.00 in0.0 mm
01:40 PM 53.7°F12.1°C 37.5°F3.1°C 54% 15.0 mph NE24.1 kmh NE 16.1 mph25.9 kmh 29.38 in994.9 mb - 0.00 in0.0 mm 0.00 in0.0 mm
01:35 PM 54.0°F12.2°C 37.2°F2.9°C 53% 12.7 mph NE20.4 kmh NE 16.1 mph25.9 kmh 29.38 in994.9 mb - 0.00 in0.0 mm 0.00 in0.0 mm
01:30 PM 54.1°F12.3°C 37.4°F3.0°C 53% 11.5 mph E18.5 kmh E 16.1 mph25.9 kmh 29.38 in994.9 mb - 0.00 in0.0 mm 0.00 in0.0 mm
01:25 PM 54.4°F12.4°C 37.6°F3.1°C 53% 13.8 mph ENE22.2 kmh ENE 15.0 mph24.1 kmh 29.38 in994.9 mb - 0.00 in0.0 mm 0.00 in0.0 mm
01:20 PM 54.6°F12.6°C 37.8°F3.2°C 53% 15.0 mph ENE24.1 kmh ENE 19.6 mph31.5 kmh 29.38 in994.9 mb - 0.00 in0.0 mm 0.00 in0.0 mm
01:15 PM 54.8°F12.7°C 38.0°F3.3°C 53% 13.8 mph ENE22.2 kmh ENE 16.1 mph25.9 kmh 29.38 in994.9 mb - 0.00 in0.0 mm 0.00 in0.0 mm
01:10 PM 55.2°F12.9°C 38.9°F3.8°C 54% 12.7 mph NE20.4 kmh NE 19.6 mph31.5 kmh 29.38 in994.9 mb - 0.00 in0.0 mm 0.00 in0.0 mm
01:00 PM 54.3°F12.4°C 38.0°F3.3°C 54% 9.2 mph ENE14.8 kmh ENE 11.5 mph18.5 kmh 29.38 in994.9 mb - 0.00 in0.0 mm 0.00 in0.0 mm
12:55 PM 54.0°F12.2°C 37.7°F3.2°C 54% 13.8 mph NE22.2 kmh NE 17.3 mph27.8 kmh 29.38 in994.9 mb - 0.00 in0.0 mm 0.00 in0.0 mm
12:50 PM 54.0°F12.2°C 37.7°F3.2°C 54% 10.4 mph NE16.7 kmh NE 18.4 mph29.6 kmh 29.38 in994.9 mb - 0.00 in0.0 mm 0.00 in0.0 mm
12:45 PM 54.3°F12.4°C 38.0°F3.3°C 54% 12.7 mph NE20.4 kmh NE 19.6 mph31.5 kmh 29.38 in994.9 mb - 0.00 in0.0 mm 0.00 in0.0 mm
12:40 PM 54.3°F12.4°C 38.0°F3.3°C 54% 11.5 mph ENE18.5 kmh ENE 16.1 mph25.9 kmh 29.38 in994.9 mb - 0.00 in0.0 mm 0.00 in0.0 mm
12:35 PM 54.3°F12.4°C 38.5°F3.6°C 55% 15.0 mph E24.1 kmh E 17.3 mph27.8 kmh 29.38 in994.9 mb - 0.00 in0.0 mm 0.00 in0.0 mm
12:30 PM 54.0°F12.2°C 38.1°F3.4°C 55% 12.7 mph E20.4 kmh E 15.0 mph24.1 kmh 29.38 in994.9 mb - 0.00 in0.0 mm 0.00 in0.0 mm
12:25 PM 54.0°F12.2°C 38.1°F3.4°C 55% 13.8 mph NE22.2 kmh NE 16.1 mph25.9 kmh 29.38 in994.9 mb - 0.00 in0.0 mm 0.00 in0.0 mm
12:20 PM 53.9°F12.2°C 38.1°F3.4°C 55% 13.8 mph ENE22.2 kmh ENE 16.1 mph25.9 kmh 29.38 in994.9 mb - 0.00 in0.0 mm 0.00 in0.0 mm
12:15 PM 53.4°F11.9°C 38.1°F3.4°C 56% 11.5 mph NE18.5 kmh NE 16.1 mph25.9 kmh 29.38 in994.9 mb - 0.00 in0.0 mm 0.00 in0.0 mm
12:10 PM 53.1°F11.7°C 37.3°F2.9°C 55% 11.5 mph ENE18.5 kmh ENE 15.0 mph24.1 kmh 29.41 in995.9 mb - 0.00 in0.0 mm 0.00 in0.0 mm
12:00 PM 53.8°F12.1°C 38.0°F3.3°C 55% 12.7 mph ENE20.4 kmh ENE 15.0 mph24.1 kmh 29.41 in995.9 mb - 0.00 in0.0 mm 0.00 in0.0 mm
11:55 AM 54.0°F12.2°C 38.1°F3.4°C 55% 9.2 mph ENE14.8 kmh ENE 13.8 mph22.2 kmh 29.41 in995.9 mb - 0.00 in0.0 mm 0.00 in0.0 mm
11:50 AM 54.0°F12.2°C 38.1°F3.4°C 55% 10.4 mph NE16.7 kmh NE 13.8 mph22.2 kmh 29.41 in995.9 mb - 0.00 in0.0 mm 0.00 in0.0 mm
11:45 AM 53.6°F12.0°C 37.8°F3.2°C 55% 12.7 mph ENE20.4 kmh ENE 15.0 mph24.1 kmh 29.41 in995.9 mb - 0.00 in0.0 mm 0.00 in0.0 mm
11:40 AM 53.8°F12.1°C 38.0°F3.3°C 55% 13.8 mph ENE22.2 kmh ENE 15.0 mph24.1 kmh 29.44 in997.0 mb - 0.00 in0.0 mm 0.00 in0.0 mm
11:35 AM 53.8°F12.1°C 38.4°F3.6°C 56% 12.7 mph NE20.4 kmh NE 17.3 mph27.8 kmh 29.44 in997.0 mb - 0.00 in0.0 mm 0.00 in0.0 mm
11:30 AM 53.8°F12.1°C 38.4°F3.6°C 56% 11.5 mph NE18.5 kmh NE 15.0 mph24.1 kmh 29.44 in997.0 mb - 0.00 in0.0 mm 0.00 in0.0 mm
11:25 AM 53.6°F12.0°C 37.8°F3.2°C 55% 11.5 mph E18.5 kmh E 12.7 mph20.4 kmh 29.44 in997.0 mb - 0.00 in0.0 mm 0.00 in0.0 mm
11:20 AM 53.8°F12.1°C 38.0°F3.3°C 55% 12.7 mph NE20.4 kmh NE 13.8 mph22.2 kmh 29.44 in997.0 mb - 0.00 in0.0 mm 0.00 in0.0 mm
11:15 AM 54.0°F12.2°C 38.6°F3.7°C 56% 12.7 mph NE20.4 kmh NE 13.8 mph22.2 kmh 29.44 in997.0 mb - 0.00 in0.0 mm 0.00 in0.0 mm
11:10 AM 54.0°F12.2°C 38.6°F3.7°C 56% 11.5 mph ENE18.5 kmh ENE 16.1 mph25.9 kmh 29.41 in995.9 mb - 0.00 in0.0 mm 0.00 in0.0 mm
11:00 AM 53.6°F12.0°C 38.3°F3.5°C 56% 12.7 mph ENE20.4 kmh ENE 16.1 mph25.9 kmh 29.41 in995.9 mb - 0.00 in0.0 mm 0.00 in0.0 mm
10:55 AM 53.4°F11.9°C 38.1°F3.4°C 56% 11.5 mph NE18.5 kmh NE 13.8 mph22.2 kmh 29.44 in997.0 mb - 0.00 in0.0 mm 0.00 in0.0 mm
10:50 AM 53.4°F11.9°C 38.1°F3.4°C 56% 10.4 mph NE16.7 kmh NE 12.7 mph20.4 kmh 29.44 in997.0 mb - 0.00 in0.0 mm 0.00 in0.0 mm
10:45 AM 53.4°F11.9°C 38.6°F3.7°C 57% 11.5 mph ENE18.5 kmh ENE 13.8 mph22.2 kmh 29.44 in997.0 mb - 0.00 in0.0 mm 0.00 in0.0 mm
10:40 AM 53.2°F11.8°C 37.9°F3.3°C 56% 10.4 mph E16.7 kmh E 13.8 mph22.2 kmh 29.44 in997.0 mb - 0.00 in0.0 mm 0.00 in0.0 mm
10:35 AM 53.2°F11.8°C 37.9°F3.3°C 56% 11.5 mph ENE18.5 kmh ENE 17.3 mph27.8 kmh 29.44 in997.0 mb - 0.00 in0.0 mm 0.00 in0.0 mm
10:30 AM 53.2°F11.8°C 37.9°F3.3°C 56% 8.1 mph ENE13.0 kmh ENE 13.8 mph22.2 kmh 29.44 in997.0 mb - 0.00 in0.0 mm 0.00 in0.0 mm
10:25 AM 53.4°F11.9°C 38.6°F3.7°C 57% 9.2 mph E14.8 kmh E 12.7 mph20.4 kmh 29.44 in997.0 mb - 0.00 in0.0 mm 0.00 in0.0 mm
10:20 AM 53.2°F11.8°C 37.9°F3.3°C 56% 9.2 mph NE14.8 kmh NE 11.5 mph18.5 kmh 29.44 in997.0 mb - 0.00 in0.0 mm 0.00 in0.0 mm
10:15 AM 53.4°F11.9°C 38.1°F3.4°C 56% 10.4 mph ENE16.7 kmh ENE 10.4 mph16.7 kmh 29.44 in997.0 mb - 0.00 in0.0 mm 0.00 in0.0 mm
10:10 AM 53.6°F12.0°C 38.3°F3.5°C 56% 10.4 mph NE16.7 kmh NE 12.7 mph20.4 kmh 29.44 in997.0 mb - 0.00 in0.0 mm 0.00 in0.0 mm
10:00 AM 53.3°F11.8°C 38.4°F3.6°C 57% 8.1 mph E13.0 kmh E 10.4 mph16.7 kmh 29.44 in997.0 mb - 0.00 in0.0 mm 0.00 in0.0 mm
09:55 AM 53.2°F11.8°C 37.9°F3.3°C 56% 10.4 mph ENE16.7 kmh ENE 15.0 mph24.1 kmh 29.44 in997.0 mb - 0.00 in0.0 mm 0.00 in0.0 mm
09:50 AM 53.2°F11.8°C 37.9°F3.3°C 56% 10.4 mph NE16.7 kmh NE 13.8 mph22.2 kmh 29.44 in997.0 mb - 0.00 in0.0 mm 0.00 in0.0 mm
09:45 AM 53.2°F11.8°C 37.9°F3.3°C 56% 12.7 mph E20.4 kmh E 15.0 mph24.1 kmh 29.44 in997.0 mb - 0.00 in0.0 mm 0.00 in0.0 mm
09:40 AM 53.3°F11.8°C 38.0°F3.3°C 56% 8.1 mph ENE13.0 kmh ENE 13.8 mph22.2 kmh 29.44 in997.0 mb - 0.00 in0.0 mm 0.00 in0.0 mm
09:35 AM 53.4°F11.9°C 38.1°F3.4°C 56% 10.4 mph ENE16.7 kmh ENE 13.8 mph22.2 kmh 29.44 in997.0 mb - 0.00 in0.0 mm 0.00 in0.0 mm
09:30 AM 53.6°F12.0°C 38.3°F3.5°C 56% 12.7 mph ENE20.4 kmh ENE 15.0 mph24.1 kmh 29.44 in997.0 mb - 0.00 in0.0 mm 0.00 in0.0 mm
09:25 AM 53.4°F11.9°C 38.1°F3.4°C 56% 10.4 mph E16.7 kmh E 13.8 mph22.2 kmh 29.44 in997.0 mb - 0.00 in0.0 mm 0.00 in0.0 mm
09:20 AM 53.8°F12.1°C 38.4°F3.6°C 56% 11.5 mph E18.5 kmh E 15.0 mph24.1 kmh 29.44 in997.0 mb - 0.00 in0.0 mm 0.00 in0.0 mm
09:15 AM 53.7°F12.1°C 38.8°F3.8°C 57% 11.5 mph E18.5 kmh E 15.0 mph24.1 kmh 29.44 in997.0 mb - 0.00 in0.0 mm 0.00 in0.0 mm
09:10 AM 53.1°F11.7°C 38.3°F3.5°C 57% 11.5 mph NE18.5 kmh NE 13.8 mph22.2 kmh 29.44 in997.0 mb - 0.00 in0.0 mm 0.00 in0.0 mm
09:00 AM 53.1°F11.7°C 38.2°F3.4°C 57% 13.8 mph NE22.2 kmh NE 16.1 mph25.9 kmh 29.44 in997.0 mb - 0.00 in0.0 mm 0.00 in0.0 mm
08:55 AM 53.1°F11.7°C 38.2°F3.4°C 57% 13.8 mph NE22.2 kmh NE 16.1 mph25.9 kmh 29.44 in997.0 mb - 0.00 in0.0 mm 0.00 in0.0 mm
08:50 AM 52.9°F11.6°C 38.0°F3.3°C 57% 10.4 mph NE16.7 kmh NE 16.1 mph25.9 kmh 29.44 in997.0 mb - 0.00 in0.0 mm 0.00 in0.0 mm
08:45 AM 52.3°F11.3°C 37.1°F2.8°C 56% 12.7 mph NE20.4 kmh NE 15.0 mph24.1 kmh 29.44 in997.0 mb - 0.00 in0.0 mm 0.00 in0.0 mm
08:40 AM 52.8°F11.6°C 38.0°F3.3°C 57% 12.7 mph NE20.4 kmh NE 15.0 mph24.1 kmh 29.44 in997.0 mb - 0.00 in0.0 mm 0.00 in0.0 mm
08:35 AM 53.2°F11.8°C 38.4°F3.6°C 57% 12.7 mph NE20.4 kmh NE 17.3 mph27.8 kmh 29.44 in997.0 mb - 0.00 in0.0 mm 0.00 in0.0 mm
08:30 AM 53.2°F11.8°C 38.8°F3.8°C 58% 10.4 mph ENE16.7 kmh ENE 13.8 mph22.2 kmh 29.44 in997.0 mb - 0.00 in0.0 mm 0.00 in0.0 mm
08:25 AM 53.5°F11.9°C 39.1°F3.9°C 58% 10.4 mph NE16.7 kmh NE 15.0 mph24.1 kmh 29.44 in997.0 mb - 0.00 in0.0 mm 0.00 in0.0 mm
08:20 AM 52.9°F11.6°C 38.5°F3.6°C 58% 12.7 mph NE20.4 kmh NE 16.1 mph25.9 kmh 29.44 in997.0 mb - 0.00 in0.0 mm 0.00 in0.0 mm
08:15 AM 53.1°F11.7°C 39.5°F4.2°C 60% 11.5 mph NE18.5 kmh NE 15.0 mph24.1 kmh 29.44 in997.0 mb - 0.00 in0.0 mm 0.00 in0.0 mm
08:10 AM 52.4°F11.3°C 38.9°F3.8°C 60% 10.4 mph NE16.7 kmh NE 13.8 mph22.2 kmh 29.44 in997.0 mb - 0.00 in0.0 mm 0.00 in0.0 mm
08:00 AM 51.3°F10.7°C 37.8°F3.2°C 60% 13.8 mph ENE22.2 kmh ENE 16.1 mph25.9 kmh 29.44 in997.0 mb - 0.00 in0.0 mm 0.00 in0.0 mm
07:55 AM 51.6°F10.9°C 38.2°F3.4°C 60% 12.7 mph NNE20.4 kmh NNE 15.0 mph24.1 kmh 29.44 in997.0 mb - 0.00 in0.0 mm 0.00 in0.0 mm
07:50 AM 51.6°F10.9°C 38.6°F3.7°C 61% 11.5 mph NE18.5 kmh NE 16.1 mph25.9 kmh 29.44 in997.0 mb - 0.00 in0.0 mm 0.00 in0.0 mm
07:45 AM 51.4°F10.8°C 38.8°F3.8°C 62% 11.5 mph NE18.5 kmh NE 13.8 mph22.2 kmh 29.44 in997.0 mb - 0.00 in0.0 mm 0.00 in0.0 mm
07:40 AM 50.9°F10.5°C 38.3°F3.5°C 62% 10.4 mph NE16.7 kmh NE 13.8 mph22.2 kmh 29.41 in995.9 mb - 0.00 in0.0 mm 0.00 in0.0 mm
07:35 AM 50.9°F10.5°C 38.3°F3.5°C 62% 8.1 mph ENE13.0 kmh ENE 12.7 mph20.4 kmh 29.41 in995.9 mb - 0.00 in0.0 mm 0.00 in0.0 mm
07:30 AM 50.7°F10.4°C 38.2°F3.4°C 62% 11.5 mph NE18.5 kmh NE 12.7 mph20.4 kmh 29.41 in995.9 mb - 0.00 in0.0 mm 0.00 in0.0 mm
07:25 AM 50.3°F10.2°C 38.1°F3.4°C 63% 9.2 mph NE14.8 kmh NE 13.8 mph22.2 kmh 29.44 in997.0 mb - 0.00 in0.0 mm 0.00 in0.0 mm
07:20 AM 50.0°F10.0°C 37.9°F3.3°C 63% 12.7 mph NE20.4 kmh NE 15.0 mph24.1 kmh 29.44 in997.0 mb - 0.00 in0.0 mm 0.00 in0.0 mm
07:15 AM 49.8°F9.9°C 38.1°F3.4°C 64% 10.4 mph NE16.7 kmh NE 13.8 mph22.2 kmh 29.44 in997.0 mb - 0.00 in0.0 mm 0.00 in0.0 mm
07:10 AM 49.5°F9.7°C 37.8°F3.2°C 64% 9.2 mph NE14.8 kmh NE 13.8 mph22.2 kmh 29.41 in995.9 mb - 0.00 in0.0 mm 0.00 in0.0 mm
07:00 AM 49.1°F9.5°C 37.4°F3.0°C 64% 8.1 mph NE13.0 kmh NE 10.4 mph16.7 kmh 29.41 in995.9 mb - 0.00 in0.0 mm 0.00 in0.0 mm
06:55 AM 48.6°F9.2°C 36.9°F2.7°C 64% 6.9 mph NE11.1 kmh NE 9.2 mph14.8 kmh 29.44 in997.0 mb - 0.00 in0.0 mm 0.00 in0.0 mm
06:50 AM 48.2°F9.0°C 36.6°F2.6°C 64% 9.2 mph NE14.8 kmh NE 9.2 mph14.8 kmh 29.44 in997.0 mb - 0.00 in0.0 mm 0.00 in0.0 mm
06:45 AM 48.0°F8.9°C 36.4°F2.4°C 64% 9.2 mph ENE14.8 kmh ENE 10.4 mph16.7 kmh 29.44 in997.0 mb - 0.00 in0.0 mm 0.00 in0.0 mm
06:40 AM 47.7°F8.7°C 36.1°F2.3°C 64% 9.2 mph NE14.8 kmh NE 11.5 mph18.5 kmh 29.44 in997.0 mb - 0.00 in0.0 mm 0.00 in0.0 mm
06:35 AM 47.7°F8.7°C 36.1°F2.3°C 64% 6.9 mph NE11.1 kmh NE 9.2 mph14.8 kmh 29.44 in997.0 mb - 0.00 in0.0 mm 0.00 in0.0 mm
06:30 AM 47.8°F8.8°C 36.6°F2.6°C 65% 9.2 mph NE14.8 kmh NE 11.5 mph18.5 kmh 29.44 in997.0 mb - 0.00 in0.0 mm 0.00 in0.0 mm
06:25 AM 47.8°F8.8°C 36.6°F2.6°C 65% 8.1 mph NE13.0 kmh NE 9.2 mph14.8 kmh 29.44 in997.0 mb - 0.00 in0.0 mm 0.00 in0.0 mm
06:20 AM 47.5°F8.6°C 36.3°F2.4°C 65% 6.9 mph NE11.1 kmh NE 10.4 mph16.7 kmh 29.44 in997.0 mb - 0.00 in0.0 mm 0.00 in0.0 mm
06:15 AM 47.3°F8.5°C 36.1°F2.3°C 65% 8.1 mph NE13.0 kmh NE 11.5 mph18.5 kmh 29.44 in997.0 mb - 0.00 in0.0 mm 0.00 in0.0 mm
06:10 AM 47.1°F8.4°C 35.9°F2.2°C 65% 8.1 mph NE13.0 kmh NE 10.4 mph16.7 kmh 29.44 in997.0 mb - 0.00 in0.0 mm 0.00 in0.0 mm
06:00 AM 46.6°F8.1°C 35.4°F1.9°C 65% 9.2 mph NE14.8 kmh NE 10.4 mph16.7 kmh 29.44 in997.0 mb - 0.00 in0.0 mm 0.00 in0.0 mm
05:55 AM 46.3°F7.9°C 35.2°F1.8°C 65% 10.4 mph NE16.7 kmh NE 13.8 mph22.2 kmh 29.44 in997.0 mb - 0.00 in0.0 mm 0.00 in0.0 mm
05:50 AM 46.1°F7.8°C 35.0°F1.7°C 65% 8.1 mph NE13.0 kmh NE 10.4 mph16.7 kmh 29.44 in997.0 mb - 0.00 in0.0 mm 0.00 in0.0 mm
05:45 AM 45.9°F7.7°C 34.8°F1.6°C 65% 8.1 mph NE13.0 kmh NE 11.5 mph18.5 kmh 29.44 in997.0 mb - 0.00 in0.0 mm 0.00 in0.0 mm
05:40 AM 45.7°F7.6°C 34.6°F1.4°C 65% 9.2 mph NE14.8 kmh NE 11.5 mph18.5 kmh 29.44 in997.0 mb - 0.00 in0.0 mm 0.00 in0.0 mm
05:35 AM 45.5°F7.5°C 34.4°F1.3°C 65% 9.2 mph NE14.8 kmh NE 11.5 mph18.5 kmh 29.44 in997.0 mb - 0.00 in0.0 mm 0.00 in0.0 mm
05:30 AM 45.5°F7.5°C 34.4°F1.3°C 65% 8.1 mph NE13.0 kmh NE 10.4 mph16.7 kmh 29.44 in997.0 mb - 0.00 in0.0 mm 0.00 in0.0 mm
05:25 AM 45.5°F7.5°C 34.4°F1.3°C 65% 8.1 mph NE13.0 kmh NE 10.4 mph16.7 kmh 29.44 in997.0 mb - 0.00 in0.0 mm 0.00 in0.0 mm
05:20 AM 45.3°F7.4°C 34.2°F1.2°C 65% 10.4 mph NE16.7 kmh NE 13.8 mph22.2 kmh 29.44 in997.0 mb - 0.00 in0.0 mm 0.00 in0.0 mm
05:15 AM 45.2°F7.3°C 34.2°F1.2°C 65% 8.1 mph NE13.0 kmh NE 10.4 mph16.7 kmh 29.44 in997.0 mb - 0.00 in0.0 mm 0.00 in0.0 mm
05:10 AM 45.1°F7.3°C 34.1°F1.2°C 65% 9.2 mph NE14.8 kmh NE 11.5 mph18.5 kmh 29.44 in997.0 mb - 0.00 in0.0 mm 0.00 in0.0 mm
05:00 AM 44.8°F7.1°C 33.3°F0.7°C 64% 9.2 mph NNE14.8 kmh NNE 11.5 mph18.5 kmh 29.44 in997.0 mb - 0.00 in0.0 mm 0.00 in0.0 mm
04:55 AM 44.8°F7.1°C 33.3°F0.7°C 64% 8.1 mph NE13.0 kmh NE 9.2 mph14.8 kmh 29.44 in997.0 mb - 0.00 in0.0 mm 0.00 in0.0 mm
04:50 AM 44.8°F7.1°C 33.3°F0.7°C 64% 8.1 mph NE13.0 kmh NE 8.1 mph13.0 kmh 29.44 in997.0 mb - 0.00 in0.0 mm 0.00 in0.0 mm
04:45 AM 44.6°F7.0°C 33.2°F0.7°C 64% 8.1 mph NE13.0 kmh NE 11.5 mph18.5 kmh 29.44 in997.0 mb - 0.00 in0.0 mm 0.00 in0.0 mm
04:40 AM 44.6°F7.0°C 33.2°F0.7°C 64% 9.2 mph NE14.8 kmh NE 10.4 mph16.7 kmh 29.44 in997.0 mb - 0.00 in0.0 mm 0.00 in0.0 mm
04:35 AM 44.6°F7.0°C 33.2°F0.7°C 64% 9.2 mph NE14.8 kmh NE 11.5 mph18.5 kmh 29.44 in997.0 mb - 0.00 in0.0 mm 0.00 in0.0 mm
04:30 AM 44.6°F7.0°C 33.2°F0.7°C 64% 8.1 mph NNE13.0 kmh NNE 9.2 mph14.8 kmh 29.44 in997.0 mb - 0.00 in0.0 mm 0.00 in0.0 mm
04:25 AM 44.6°F7.0°C 33.2°F0.7°C 64% 9.2 mph NE14.8 kmh NE 9.2 mph14.8 kmh 29.44 in997.0 mb - 0.00 in0.0 mm 0.00 in0.0 mm
04:20 AM 44.5°F6.9°C 33.4°F0.8°C 65% 10.4 mph NE16.7 kmh NE 10.4 mph16.7 kmh 29.44 in997.0 mb - 0.00 in0.0 mm 0.00 in0.0 mm
04:15 AM 44.4°F6.9°C 33.4°F0.8°C 65% 8.1 mph NE13.0 kmh NE 10.4 mph16.7 kmh 29.44 in997.0 mb - 0.00 in0.0 mm 0.00 in0.0 mm
04:10 AM 44.2°F6.8°C 33.2°F0.7°C 65% 8.1 mph NE13.0 kmh NE 10.4 mph16.7 kmh 29.44 in997.0 mb - 0.00 in0.0 mm 0.00 in0.0 mm
04:00 AM 44.2°F6.8°C 32.8°F0.4°C 64% 8.1 mph NE13.0 kmh NE 10.4 mph16.7 kmh 29.44 in997.0 mb - 0.00 in0.0 mm 0.00 in0.0 mm
03:55 AM 44.2°F6.8°C 32.8°F0.4°C 64% 8.1 mph NNE13.0 kmh NNE 11.5 mph18.5 kmh 29.47 in998.0 mb - 0.00 in0.0 mm 0.00 in0.0 mm
03:50 AM 44.2°F6.8°C 32.8°F0.4°C 64% 6.9 mph NE11.1 kmh NE 6.9 mph11.1 kmh 29.47 in998.0 mb - 0.00 in0.0 mm 0.00 in0.0 mm
03:45 AM 44.2°F6.8°C 32.8°F0.4°C 64% 8.1 mph NE13.0 kmh NE 9.2 mph14.8 kmh 29.47 in998.0 mb - 0.00 in0.0 mm 0.00 in0.0 mm
03:40 AM 44.2°F6.8°C 32.8°F0.4°C 64% 6.9 mph NE11.1 kmh NE 10.4 mph16.7 kmh 29.47 in998.0 mb - 0.00 in0.0 mm 0.00 in0.0 mm
03:35 AM 44.2°F6.8°C 32.8°F0.4°C 64% 6.9 mph NE11.1 kmh NE 9.2 mph14.8 kmh 29.47 in998.0 mb - 0.00 in0.0 mm 0.00 in0.0 mm
03:30 AM 44.4°F6.9°C 33.0°F0.6°C 64% 8.1 mph NE13.0 kmh NE 9.2 mph14.8 kmh 29.47 in998.0 mb - 0.00 in0.0 mm 0.00 in0.0 mm
03:25 AM 44.4°F6.9°C 33.0°F0.6°C 64% 5.8 mph NE9.3 kmh NE 6.9 mph11.1 kmh 29.47 in998.0 mb - 0.00 in0.0 mm 0.00 in0.0 mm
03:20 AM 44.5°F6.9°C 33.1°F0.6°C 64% 6.9 mph NE11.1 kmh NE 9.2 mph14.8 kmh 29.47 in998.0 mb - 0.00 in0.0 mm 0.00 in0.0 mm
03:15 AM 44.5°F6.9°C 33.1°F0.6°C 64% 8.1 mph NE13.0 kmh NE 10.4 mph16.7 kmh 29.47 in998.0 mb - 0.00 in0.0 mm 0.00 in0.0 mm
03:10 AM 44.2°F6.8°C 32.8°F0.4°C 64% 6.9 mph NE11.1 kmh NE 10.4 mph16.7 kmh 29.47 in998.0 mb - 0.00 in0.0 mm 0.00 in0.0 mm
03:00 AM 44.2°F6.8°C 32.8°F0.4°C 64% 8.1 mph NE13.0 kmh NE 10.4 mph16.7 kmh 29.47 in998.0 mb - 0.00 in0.0 mm 0.00 in0.0 mm
02:55 AM 44.2°F6.8°C 32.8°F0.4°C 64% 6.9 mph NNE11.1 kmh NNE 9.2 mph14.8 kmh 29.47 in998.0 mb - 0.00 in0.0 mm 0.00 in0.0 mm
02:50 AM 44.2°F6.8°C 32.8°F0.4°C 64% 6.9 mph NE11.1 kmh NE 10.4 mph16.7 kmh 29.47 in998.0 mb - 0.00 in0.0 mm 0.00 in0.0 mm
02:45 AM 44.2°F6.8°C 32.8°F0.4°C 64% 8.1 mph NE13.0 kmh NE 8.1 mph13.0 kmh 29.47 in998.0 mb - 0.00 in0.0 mm 0.00 in0.0 mm
02:40 AM 44.2°F6.8°C 32.8°F0.4°C 64% 8.1 mph NE13.0 kmh NE 9.2 mph14.8 kmh 29.47 in998.0 mb - 0.00 in0.0 mm 0.00 in0.0 mm
02:35 AM 44.4°F6.9°C 33.0°F0.6°C 64% 6.9 mph NE11.1 kmh NE 10.4 mph16.7 kmh 29.47 in998.0 mb - 0.00 in0.0 mm 0.00 in0.0 mm
02:30 AM 44.4°F6.9°C 33.0°F0.6°C 64% 9.2 mph NE14.8 kmh NE 12.7 mph20.4 kmh 29.47 in998.0 mb - 0.00 in0.0 mm 0.00 in0.0 mm
02:25 AM 44.4°F6.9°C 33.0°F0.6°C 64% 9.2 mph NE14.8 kmh NE 11.5 mph18.5 kmh 29.50 in999.0 mb - 0.00 in0.0 mm 0.00 in0.0 mm
02:20 AM 44.6°F7.0°C 33.2°F0.7°C 64% 8.1 mph NE13.0 kmh NE 10.4 mph16.7 kmh 29.50 in999.0 mb - 0.00 in0.0 mm 0.00 in0.0 mm
02:15 AM 44.6°F7.0°C 33.2°F0.7°C 64% 8.1 mph NE13.0 kmh NE 9.2 mph14.8 kmh 29.50 in999.0 mb - 0.00 in0.0 mm 0.00 in0.0 mm
02:10 AM 44.6°F7.0°C 33.2°F0.7°C 64% 8.1 mph NE13.0 kmh NE 9.2 mph14.8 kmh 29.50 in999.0 mb - 0.00 in0.0 mm 0.00 in0.0 mm
02:00 AM 44.5°F6.9°C 33.1°F0.6°C 64% 9.2 mph NE14.8 kmh NE 10.4 mph16.7 kmh 29.50 in999.0 mb - 0.00 in0.0 mm 0.00 in0.0 mm
01:55 AM 44.6°F7.0°C 32.8°F0.4°C 63% 6.9 mph NE11.1 kmh NE 9.2 mph14.8 kmh 29.50 in999.0 mb - 0.00 in0.0 mm 0.00 in0.0 mm
01:50 AM 44.6°F7.0°C 32.8°F0.4°C 63% 10.4 mph NE16.7 kmh NE 12.7 mph20.4 kmh 29.50 in999.0 mb - 0.00 in0.0 mm 0.00 in0.0 mm
01:45 AM 44.5°F6.9°C 33.1°F0.6°C 64% 8.1 mph NNE13.0 kmh NNE 9.2 mph14.8 kmh 29.50 in999.0 mb - 0.00 in0.0 mm 0.00 in0.0 mm
01:40 AM 44.6°F7.0°C 32.7°F0.4°C 63% 8.1 mph NE13.0 kmh NE 9.2 mph14.8 kmh 29.50 in999.0 mb - 0.00 in0.0 mm 0.00 in0.0 mm
01:35 AM 44.6°F7.0°C 32.8°F0.4°C 63% 9.2 mph NE14.8 kmh NE 11.5 mph18.5 kmh 29.50 in999.0 mb - 0.00 in0.0 mm 0.00 in0.0 mm
01:30 AM 44.6°F7.0°C 32.8°F0.4°C 63% 8.1 mph NE13.0 kmh NE 9.2 mph14.8 kmh 29.50 in999.0 mb - 0.00 in0.0 mm 0.00 in0.0 mm
01:25 AM 44.6°F7.0°C 32.8°F0.4°C 63% 8.1 mph NE13.0 kmh NE 9.2 mph14.8 kmh 29.50 in999.0 mb - 0.00 in0.0 mm 0.00 in0.0 mm
01:20 AM 44.6°F7.0°C 32.8°F0.4°C 63% 6.9 mph NE11.1 kmh NE 8.1 mph13.0 kmh 29.50 in999.0 mb - 0.00 in0.0 mm 0.00 in0.0 mm
01:15 AM 44.6°F7.0°C 32.8°F0.4°C 63% 8.1 mph NE13.0 kmh NE 8.1 mph13.0 kmh 29.50 in999.0 mb - 0.00 in0.0 mm 0.00 in0.0 mm
01:10 AM 44.4°F6.9°C 32.6°F0.3°C 63% 8.1 mph NE13.0 kmh NE 10.4 mph16.7 kmh 29.47 in998.0 mb - 0.00 in0.0 mm 0.00 in0.0 mm
01:00 AM 44.4°F6.9°C 32.6°F0.3°C 63% 6.9 mph NE11.1 kmh NE 8.1 mph13.0 kmh 29.47 in998.0 mb - 0.00 in0.0 mm 0.00 in0.0 mm
12:55 AM 44.2°F6.8°C 32.4°F0.2°C 63% 6.9 mph NE11.1 kmh NE 8.1 mph13.0 kmh 29.47 in998.0 mb - 0.00 in0.0 mm 0.00 in0.0 mm
12:50 AM 44.4°F6.9°C 32.6°F0.3°C 63% 6.9 mph N11.1 kmh N 9.2 mph14.8 kmh 29.47 in998.0 mb - 0.00 in0.0 mm 0.00 in0.0 mm
12:45 AM 44.4°F6.9°C 32.6°F0.3°C 63% 8.1 mph NNE13.0 kmh NNE 9.2 mph14.8 kmh 29.47 in998.0 mb - 0.00 in0.0 mm 0.00 in0.0 mm
12:40 AM 44.6°F7.0°C 32.7°F0.4°C 63% 6.9 mph NNE11.1 kmh NNE 8.1 mph13.0 kmh 29.50 in999.0 mb - 0.00 in0.0 mm 0.00 in0.0 mm
12:35 AM 44.6°F7.0°C 32.8°F0.4°C 63% 6.9 mph NNE11.1 kmh NNE 8.1 mph13.0 kmh 29.50 in999.0 mb - 0.00 in0.0 mm 0.00 in0.0 mm
12:30 AM 44.6°F7.0°C 32.8°F0.4°C 63% 8.1 mph NNE13.0 kmh NNE 9.2 mph14.8 kmh 29.50 in999.0 mb - 0.00 in0.0 mm 0.00 in0.0 mm
12:25 AM 44.8°F7.1°C 32.9°F0.5°C 63% 6.9 mph NE11.1 kmh NE 9.2 mph14.8 kmh 29.50 in999.0 mb - 0.00 in0.0 mm 0.00 in0.0 mm
12:20 AM 44.8°F7.1°C 32.9°F0.5°C 63% 6.9 mph NE11.1 kmh NE 8.1 mph13.0 kmh 29.50 in999.0 mb - 0.00 in0.0 mm 0.00 in0.0 mm
12:15 AM 44.8°F7.1°C 32.9°F0.5°C 63% 8.1 mph NE13.0 kmh NE 9.2 mph14.8 kmh 29.50 in999.0 mb - 0.00 in0.0 mm 0.00 in0.0 mm
12:10 AM 44.8°F7.1°C 32.9°F0.5°C 63% 8.1 mph NE13.0 kmh NE 10.4 mph16.7 kmh 29.50 in999.0 mb - 0.00 in0.0 mm 0.00 in0.0 mm
12:00 AM 44.8°F7.1°C 32.9°F0.5°C 63% 6.9 mph NE11.1 kmh NE 9.2 mph14.8 kmh 29.50 in999.0 mb - 0.00 in0.0 mm 0.00 in0.0 mm